sensor_id;sensor_type;location;lat;lon;timestamp;P1;durP1;ratioP1;P2;durP2;ratioP2
64085;SDS011;50333;47.436;21.390;2023-03-20T00:02:20;24.50;;;15.35;;
64085;SDS011;50333;47.436;21.390;2023-03-20T00:04:49;24.58;;;15.35;;
64085;SDS011;50333;47.436;21.390;2023-03-20T00:07:17;23.85;;;15.68;;
64085;SDS011;50333;47.436;21.390;2023-03-20T00:09:45;21.67;;;15.38;;
64085;SDS011;50333;47.436;21.390;2023-03-20T00:12:15;22.98;;;13.77;;
64085;SDS011;50333;47.436;21.390;2023-03-20T00:14:50;27.08;;;15.68;;
64085;SDS011;50333;47.436;21.390;2023-03-20T00:17:19;22.08;;;14.40;;
64085;SDS011;50333;47.436;21.390;2023-03-20T00:19:47;24.23;;;15.93;;
64085;SDS011;50333;47.436;21.390;2023-03-20T00:22:16;25.55;;;15.35;;
64085;SDS011;50333;47.436;21.390;2023-03-20T00:24:44;25.23;;;15.10;;
64085;SDS011;50333;47.436;21.390;2023-03-20T00:27:12;24.37;;;15.15;;
64085;SDS011;50333;47.436;21.390;2023-03-20T00:29:42;23.75;;;13.50;;
64085;SDS011;50333;47.436;21.390;2023-03-20T00:32:11;25.88;;;14.87;;
64085;SDS011;50333;47.436;21.390;2023-03-20T00:34:41;24.37;;;15.07;;
64085;SDS011;50333;47.436;21.390;2023-03-20T00:37:09;20.95;;;14.02;;
64085;SDS011;50333;47.436;21.390;2023-03-20T00:39:39;24.05;;;15.35;;
64085;SDS011;50333;47.436;21.390;2023-03-20T00:42:10;25.33;;;15.65;;
64085;SDS011;50333;47.436;21.390;2023-03-20T00:44:51;22.13;;;14.20;;
64085;SDS011;50333;47.436;21.390;2023-03-20T00:47:23;24.12;;;14.93;;
64085;SDS011;50333;47.436;21.390;2023-03-20T00:49:52;20.85;;;14.02;;
64085;SDS011;50333;47.436;21.390;2023-03-20T00:52:22;23.27;;;14.18;;
64085;SDS011;50333;47.436;21.390;2023-03-20T00:54:51;21.73;;;15.13;;
64085;SDS011;50333;47.436;21.390;2023-03-20T00:57:26;25.70;;;14.95;;
64085;SDS011;50333;47.436;21.390;2023-03-20T01:00:20;24.05;;;15.45;;
64085;SDS011;50333;47.436;21.390;2023-03-20T01:02:52;21.30;;;14.07;;
64085;SDS011;50333;47.436;21.390;2023-03-20T01:07:54;21.77;;;13.88;;
64085;SDS011;50333;47.436;21.390;2023-03-20T01:10:27;23.12;;;13.60;;
64085;SDS011;50333;47.436;21.390;2023-03-20T01:12:59;22.73;;;14.55;;
64085;SDS011;50333;47.436;21.390;2023-03-20T01:15:32;23.45;;;14.35;;
64085;SDS011;50333;47.436;21.390;2023-03-20T01:18:02;26.20;;;14.98;;
64085;SDS011;50333;47.436;21.390;2023-03-20T01:20:30;24.58;;;14.90;;
64085;SDS011;50333;47.436;21.390;2023-03-20T01:22:58;24.30;;;14.15;;
64085;SDS011;50333;47.436;21.390;2023-03-20T01:25:27;22.20;;;14.87;;
64085;SDS011;50333;47.436;21.390;2023-03-20T01:27:55;25.50;;;13.75;;
64085;SDS011;50333;47.436;21.390;2023-03-20T01:30:27;23.65;;;14.98;;
64085;SDS011;50333;47.436;21.390;2023-03-20T01:32:57;21.62;;;14.05;;
64085;SDS011;50333;47.436;21.390;2023-03-20T01:37:57;21.12;;;13.55;;
64085;SDS011;50333;47.436;21.390;2023-03-20T01:40:33;21.30;;;13.82;;
64085;SDS011;50333;47.436;21.390;2023-03-20T01:43:12;22.17;;;13.85;;
64085;SDS011;50333;47.436;21.390;2023-03-20T01:45:55;27.40;;;15.10;;
64085;SDS011;50333;47.436;21.390;2023-03-20T01:51:21;19.65;;;13.00;;
64085;SDS011;50333;47.436;21.390;2023-03-20T01:53:58;21.00;;;13.77;;
64085;SDS011;50333;47.436;21.390;2023-03-20T01:56:34;21.67;;;14.15;;
64085;SDS011;50333;47.436;21.390;2023-03-20T01:59:50;20.60;;;13.90;;
64085;SDS011;50333;47.436;21.390;2023-03-20T02:02:07;19.58;;;13.25;;
64085;SDS011;50333;47.436;21.390;2023-03-20T02:04:38;20.23;;;12.80;;
64085;SDS011;50333;47.436;21.390;2023-03-20T02:07:10;20.58;;;12.90;;
64085;SDS011;50333;47.436;21.390;2023-03-20T02:09:45;20.35;;;13.05;;
64085;SDS011;50333;47.436;21.390;2023-03-20T02:12:15;19.70;;;13.20;;
64085;SDS011;50333;47.436;21.390;2023-03-20T02:14:44;20.73;;;13.45;;
64085;SDS011;50333;47.436;21.390;2023-03-20T02:17:15;20.83;;;13.62;;
64085;SDS011;50333;47.436;21.390;2023-03-20T02:19:49;22.52;;;13.05;;
64085;SDS011;50333;47.436;21.390;2023-03-20T02:25:27;22.83;;;13.70;;
64085;SDS011;50333;47.436;21.390;2023-03-20T02:28:17;19.60;;;13.30;;
64085;SDS011;50333;47.436;21.390;2023-03-20T02:40:01;22.05;;;13.25;;
64085;SDS011;50333;47.436;21.390;2023-03-20T02:43:40;21.70;;;12.10;;
64085;SDS011;50333;47.436;21.390;2023-03-20T02:51:39;18.20;;;13.23;;
64085;SDS011;50333;47.436;21.390;2023-03-20T02:57:08;22.35;;;13.57;;
64085;SDS011;50333;47.436;21.390;2023-03-20T03:00:08;22.17;;;13.55;;
64085;SDS011;50333;47.436;21.390;2023-03-20T03:02:41;19.95;;;12.75;;
64085;SDS011;50333;47.436;21.390;2023-03-20T03:05:35;19.25;;;12.57;;
64085;SDS011;50333;47.436;21.390;2023-03-20T03:08:08;23.87;;;13.73;;
64085;SDS011;50333;47.436;21.390;2023-03-20T03:10:42;22.27;;;13.62;;
64085;SDS011;50333;47.436;21.390;2023-03-20T03:13:16;20.37;;;13.27;;
64085;SDS011;50333;47.436;21.390;2023-03-20T03:15:49;22.08;;;12.75;;
64085;SDS011;50333;47.436;21.390;2023-03-20T03:18:22;23.62;;;13.65;;
64085;SDS011;50333;47.436;21.390;2023-03-20T03:20:54;28.60;;;13.30;;
64085;SDS011;50333;47.436;21.390;2023-03-20T03:23:28;21.05;;;13.55;;
64085;SDS011;50333;47.436;21.390;2023-03-20T03:26:02;20.23;;;13.15;;
64085;SDS011;50333;47.436;21.390;2023-03-20T03:28:35;20.75;;;12.95;;
64085;SDS011;50333;47.436;21.390;2023-03-20T03:31:13;19.65;;;12.77;;
64085;SDS011;50333;47.436;21.390;2023-03-20T03:33:45;18.67;;;12.43;;
64085;SDS011;50333;47.436;21.390;2023-03-20T03:41:39;20.55;;;13.40;;
64085;SDS011;50333;47.436;21.390;2023-03-20T03:51:59;17.85;;;11.75;;
64085;SDS011;50333;47.436;21.390;2023-03-20T03:54:33;15.98;;;11.32;;
64085;SDS011;50333;47.436;21.390;2023-03-20T03:57:11;20.08;;;13.57;;
64085;SDS011;50333;47.436;21.390;2023-03-20T03:59:45;18.05;;;12.32;;
64085;SDS011;50333;47.436;21.390;2023-03-20T04:02:17;20.73;;;12.77;;
64085;SDS011;50333;47.436;21.390;2023-03-20T04:04:48;19.87;;;12.95;;
64085;SDS011;50333;47.436;21.390;2023-03-20T04:07:19;18.98;;;13.00;;
64085;SDS011;50333;47.436;21.390;2023-03-20T04:09:48;22.33;;;13.95;;
64085;SDS011;50333;47.436;21.390;2023-03-20T04:12:51;20.15;;;13.23;;
64085;SDS011;50333;47.436;21.390;2023-03-20T04:15:12;18.45;;;12.52;;
64085;SDS011;50333;47.436;21.390;2023-03-20T04:17:42;19.52;;;12.32;;
64085;SDS011;50333;47.436;21.390;2023-03-20T04:20:12;21.48;;;12.82;;
64085;SDS011;50333;47.436;21.390;2023-03-20T04:22:40;19.08;;;12.90;;
64085;SDS011;50333;47.436;21.390;2023-03-20T04:25:16;21.00;;;12.40;;
64085;SDS011;50333;47.436;21.390;2023-03-20T04:27:47;16.55;;;11.38;;
64085;SDS011;50333;47.436;21.390;2023-03-20T04:30:17;21.45;;;12.98;;
64085;SDS011;50333;47.436;21.390;2023-03-20T04:32:49;18.58;;;12.18;;
64085;SDS011;50333;47.436;21.390;2023-03-20T04:35:17;18.67;;;12.15;;
64085;SDS011;50333;47.436;21.390;2023-03-20T04:37:46;19.05;;;12.73;;
64085;SDS011;50333;47.436;21.390;2023-03-20T04:40:14;18.73;;;12.40;;
64085;SDS011;50333;47.436;21.390;2023-03-20T04:42:43;18.02;;;12.35;;
64085;SDS011;50333;47.436;21.390;2023-03-20T04:45:11;18.75;;;12.20;;
64085;SDS011;50333;47.436;21.390;2023-03-20T04:47:39;18.67;;;12.70;;
64085;SDS011;50333;47.436;21.390;2023-03-20T04:50:09;17.75;;;12.23;;
64085;SDS011;50333;47.436;21.390;2023-03-20T04:52:38;19.62;;;13.35;;
64085;SDS011;50333;47.436;21.390;2023-03-20T04:55:07;19.15;;;11.65;;
64085;SDS011;50333;47.436;21.390;2023-03-20T04:57:36;18.85;;;12.37;;
64085;SDS011;50333;47.436;21.390;2023-03-20T05:00:04;22.60;;;12.75;;
64085;SDS011;50333;47.436;21.390;2023-03-20T05:02:33;19.67;;;12.37;;
64085;SDS011;50333;47.436;21.390;2023-03-20T05:05:01;18.02;;;12.15;;
64085;SDS011;50333;47.436;21.390;2023-03-20T05:07:30;18.92;;;12.20;;
64085;SDS011;50333;47.436;21.390;2023-03-20T05:09:59;17.85;;;11.98;;
64085;SDS011;50333;47.436;21.390;2023-03-20T05:12:28;20.90;;;12.75;;
64085;SDS011;50333;47.436;21.390;2023-03-20T05:14:58;18.15;;;12.07;;
64085;SDS011;50333;47.436;21.390;2023-03-20T05:17:26;19.05;;;12.43;;
64085;SDS011;50333;47.436;21.390;2023-03-20T05:19:54;20.80;;;12.52;;
64085;SDS011;50333;47.436;21.390;2023-03-20T05:22:25;19.90;;;12.52;;
64085;SDS011;50333;47.436;21.390;2023-03-20T05:24:53;16.60;;;11.23;;
64085;SDS011;50333;47.436;21.390;2023-03-20T05:27:23;18.10;;;12.68;;
64085;SDS011;50333;47.436;21.390;2023-03-20T05:29:51;16.85;;;11.38;;
64085;SDS011;50333;47.436;21.390;2023-03-20T05:32:19;19.25;;;12.48;;
64085;SDS011;50333;47.436;21.390;2023-03-20T05:34:50;18.48;;;11.73;;
64085;SDS011;50333;47.436;21.390;2023-03-20T05:37:18;15.80;;;12.13;;
64085;SDS011;50333;47.436;21.390;2023-03-20T05:39:46;16.35;;;11.88;;
64085;SDS011;50333;47.436;21.390;2023-03-20T05:42:15;19.12;;;11.57;;
64085;SDS011;50333;47.436;21.390;2023-03-20T05:44:43;17.50;;;11.63;;
64085;SDS011;50333;47.436;21.390;2023-03-20T05:47:11;18.92;;;12.10;;
64085;SDS011;50333;47.436;21.390;2023-03-20T05:49:40;19.20;;;11.77;;
64085;SDS011;50333;47.436;21.390;2023-03-20T05:52:09;17.15;;;11.73;;
64085;SDS011;50333;47.436;21.390;2023-03-20T05:54:37;18.65;;;12.00;;
64085;SDS011;50333;47.436;21.390;2023-03-20T05:57:06;15.70;;;11.40;;
64085;SDS011;50333;47.436;21.390;2023-03-20T05:59:35;17.92;;;11.77;;
64085;SDS011;50333;47.436;21.390;2023-03-20T06:02:04;16.27;;;10.98;;
64085;SDS011;50333;47.436;21.390;2023-03-20T06:04:33;16.92;;;11.30;;
64085;SDS011;50333;47.436;21.390;2023-03-20T06:07:04;16.42;;;11.65;;
64085;SDS011;50333;47.436;21.390;2023-03-20T06:09:33;17.90;;;11.30;;
64085;SDS011;50333;47.436;21.390;2023-03-20T06:12:04;17.02;;;11.43;;
64085;SDS011;50333;47.436;21.390;2023-03-20T06:14:33;16.95;;;11.68;;
64085;SDS011;50333;47.436;21.390;2023-03-20T06:17:01;20.02;;;11.68;;
64085;SDS011;50333;47.436;21.390;2023-03-20T06:19:29;15.80;;;10.93;;
64085;SDS011;50333;47.436;21.390;2023-03-20T06:21:58;18.85;;;11.45;;
64085;SDS011;50333;47.436;21.390;2023-03-20T06:24:25;18.00;;;11.35;;
64085;SDS011;50333;47.436;21.390;2023-03-20T06:26:54;17.08;;;10.90;;
64085;SDS011;50333;47.436;21.390;2023-03-20T06:29:23;16.90;;;10.82;;
64085;SDS011;50333;47.436;21.390;2023-03-20T06:31:52;15.35;;;10.68;;
64085;SDS011;50333;47.436;21.390;2023-03-20T06:34:21;18.95;;;12.23;;
64085;SDS011;50333;47.436;21.390;2023-03-20T06:36:49;15.55;;;12.30;;
64085;SDS011;50333;47.436;21.390;2023-03-20T06:39:17;15.55;;;10.80;;
64085;SDS011;50333;47.436;21.390;2023-03-20T06:41:45;15.68;;;11.45;;
64085;SDS011;50333;47.436;21.390;2023-03-20T06:44:14;16.60;;;10.98;;
64085;SDS011;50333;47.436;21.390;2023-03-20T06:46:43;18.50;;;11.32;;
64085;SDS011;50333;47.436;21.390;2023-03-20T06:49:12;20.15;;;10.80;;
64085;SDS011;50333;47.436;21.390;2023-03-20T06:51:40;18.27;;;11.38;;
64085;SDS011;50333;47.436;21.390;2023-03-20T06:54:09;15.27;;;11.02;;
64085;SDS011;50333;47.436;21.390;2023-03-20T06:56:37;16.48;;;11.27;;
64085;SDS011;50333;47.436;21.390;2023-03-20T06:59:05;15.80;;;10.88;;
64085;SDS011;50333;47.436;21.390;2023-03-20T07:01:33;16.35;;;11.18;;
64085;SDS011;50333;47.436;21.390;2023-03-20T07:04:02;15.23;;;10.90;;
64085;SDS011;50333;47.436;21.390;2023-03-20T07:06:34;16.77;;;11.35;;
64085;SDS011;50333;47.436;21.390;2023-03-20T07:09:03;15.27;;;11.18;;
64085;SDS011;50333;47.436;21.390;2023-03-20T07:11:32;15.70;;;10.98;;
64085;SDS011;50333;47.436;21.390;2023-03-20T07:14:00;20.40;;;11.70;;
64085;SDS011;50333;47.436;21.390;2023-03-20T07:16:31;19.60;;;11.98;;
64085;SDS011;50333;47.436;21.390;2023-03-20T07:19:00;23.40;;;14.07;;
64085;SDS011;50333;47.436;21.390;2023-03-20T07:21:32;18.58;;;11.82;;
64085;SDS011;50333;47.436;21.390;2023-03-20T07:24:01;17.20;;;12.23;;
64085;SDS011;50333;47.436;21.390;2023-03-20T07:26:30;16.50;;;11.10;;
64085;SDS011;50333;47.436;21.390;2023-03-20T07:28:58;19.42;;;11.75;;
64085;SDS011;50333;47.436;21.390;2023-03-20T07:31:27;17.70;;;11.75;;
64085;SDS011;50333;47.436;21.390;2023-03-20T07:33:59;16.33;;;11.35;;
64085;SDS011;50333;47.436;21.390;2023-03-20T07:36:28;18.77;;;12.55;;
64085;SDS011;50333;47.436;21.390;2023-03-20T07:38:57;17.27;;;11.77;;
64085;SDS011;50333;47.436;21.390;2023-03-20T07:41:25;15.88;;;11.82;;
64085;SDS011;50333;47.436;21.390;2023-03-20T07:43:56;16.00;;;11.45;;
64085;SDS011;50333;47.436;21.390;2023-03-20T07:46:25;19.15;;;12.40;;
64085;SDS011;50333;47.436;21.390;2023-03-20T07:48:53;21.60;;;12.37;;
64085;SDS011;50333;47.436;21.390;2023-03-20T07:51:23;21.37;;;12.90;;
64085;SDS011;50333;47.436;21.390;2023-03-20T07:53:52;18.05;;;12.35;;
64085;SDS011;50333;47.436;21.390;2023-03-20T07:56:20;17.90;;;11.95;;
64085;SDS011;50333;47.436;21.390;2023-03-20T07:58:48;16.52;;;12.10;;
64085;SDS011;50333;47.436;21.390;2023-03-20T08:01:16;17.17;;;12.30;;
64085;SDS011;50333;47.436;21.390;2023-03-20T08:03:44;17.12;;;12.25;;
64085;SDS011;50333;47.436;21.390;2023-03-20T08:06:12;19.20;;;12.80;;
64085;SDS011;50333;47.436;21.390;2023-03-20T08:08:40;17.60;;;11.93;;
64085;SDS011;50333;47.436;21.390;2023-03-20T08:11:08;16.12;;;11.68;;
64085;SDS011;50333;47.436;21.390;2023-03-20T08:13:36;18.27;;;12.82;;
64085;SDS011;50333;47.436;21.390;2023-03-20T08:16:04;17.10;;;12.37;;
64085;SDS011;50333;47.436;21.390;2023-03-20T08:18:32;17.40;;;12.60;;
64085;SDS011;50333;47.436;21.390;2023-03-20T08:21:04;16.85;;;12.20;;
64085;SDS011;50333;47.436;21.390;2023-03-20T08:23:32;18.80;;;13.30;;
64085;SDS011;50333;47.436;21.390;2023-03-20T08:26:00;17.60;;;12.73;;
64085;SDS011;50333;47.436;21.390;2023-03-20T08:28:28;14.90;;;11.95;;
64085;SDS011;50333;47.436;21.390;2023-03-20T08:31:15;15.95;;;11.73;;
64085;SDS011;50333;47.436;21.390;2023-03-20T08:33:44;17.20;;;12.10;;
64085;SDS011;50333;47.436;21.390;2023-03-20T08:36:14;16.87;;;12.32;;
64085;SDS011;50333;47.436;21.390;2023-03-20T08:38:42;18.98;;;12.63;;
64085;SDS011;50333;47.436;21.390;2023-03-20T08:41:10;16.95;;;12.20;;
64085;SDS011;50333;47.436;21.390;2023-03-20T08:43:39;19.17;;;12.93;;
64085;SDS011;50333;47.436;21.390;2023-03-20T08:46:07;16.62;;;11.63;;
64085;SDS011;50333;47.436;21.390;2023-03-20T08:48:35;17.80;;;12.93;;
64085;SDS011;50333;47.436;21.390;2023-03-20T08:51:04;17.05;;;12.50;;
64085;SDS011;50333;47.436;21.390;2023-03-20T08:56:03;17.77;;;12.30;;
64085;SDS011;50333;47.436;21.390;2023-03-20T08:58:32;14.45;;;11.85;;
64085;SDS011;50333;47.436;21.390;2023-03-20T09:01:04;17.45;;;12.88;;
64085;SDS011;50333;47.436;21.390;2023-03-20T09:03:35;15.88;;;12.65;;
64085;SDS011;50333;47.436;21.390;2023-03-20T09:06:04;18.45;;;13.65;;
64085;SDS011;50333;47.436;21.390;2023-03-20T09:08:33;16.30;;;12.25;;
64085;SDS011;50333;47.436;21.390;2023-03-20T09:11:03;18.83;;;13.05;;
64085;SDS011;50333;47.436;21.390;2023-03-20T09:13:31;15.65;;;12.27;;
64085;SDS011;50333;47.436;21.390;2023-03-20T09:15:59;16.42;;;12.13;;
64085;SDS011;50333;47.436;21.390;2023-03-20T09:18:27;19.87;;;12.68;;
64085;SDS011;50333;47.436;21.390;2023-03-20T09:20:57;15.48;;;12.40;;
64085;SDS011;50333;47.436;21.390;2023-03-20T09:23:25;16.80;;;11.80;;
64085;SDS011;50333;47.436;21.390;2023-03-20T09:25:53;18.27;;;13.35;;
64085;SDS011;50333;47.436;21.390;2023-03-20T09:28:22;17.95;;;12.60;;
64085;SDS011;50333;47.436;21.390;2023-03-20T09:30:53;15.52;;;12.70;;
64085;SDS011;50333;47.436;21.390;2023-03-20T09:33:23;15.50;;;12.25;;
64085;SDS011;50333;47.436;21.390;2023-03-20T09:35:52;14.48;;;11.80;;
64085;SDS011;50333;47.436;21.390;2023-03-20T09:38:20;15.98;;;12.23;;
64085;SDS011;50333;47.436;21.390;2023-03-20T09:40:53;15.80;;;11.75;;
64085;SDS011;50333;47.436;21.390;2023-03-20T09:46:32;16.55;;;12.65;;
64085;SDS011;50333;47.436;21.390;2023-03-20T09:49:08;17.17;;;13.23;;
64085;SDS011;50333;47.436;21.390;2023-03-20T09:51:47;16.08;;;11.75;;
64085;SDS011;50333;47.436;21.390;2023-03-20T09:54:56;14.90;;;13.20;;
64085;SDS011;50333;47.436;21.390;2023-03-20T09:57:38;14.18;;;12.68;;
64085;SDS011;50333;47.436;21.390;2023-03-20T10:00:30;15.52;;;12.50;;
64085;SDS011;50333;47.436;21.390;2023-03-20T10:03:05;16.83;;;13.82;;
64085;SDS011;50333;47.436;21.390;2023-03-20T10:05:44;14.15;;;12.65;;
64085;SDS011;50333;47.436;21.390;2023-03-20T10:08:17;15.02;;;12.65;;
64085;SDS011;50333;47.436;21.390;2023-03-20T10:14:04;14.00;;;11.27;;
64085;SDS011;50333;47.436;21.390;2023-03-20T10:16:44;12.95;;;11.55;;
64085;SDS011;50333;47.436;21.390;2023-03-20T10:22:20;13.57;;;10.20;;
64085;SDS011;50333;47.436;21.390;2023-03-20T10:25:06;14.07;;;10.75;;
64085;SDS011;50333;47.436;21.390;2023-03-20T10:27:48;16.23;;;10.70;;
64085;SDS011;50333;47.436;21.390;2023-03-20T10:43:00;13.00;;;10.43;;
64085;SDS011;50333;47.436;21.390;2023-03-20T10:45:40;9.73;;;8.55;;
64085;SDS011;50333;47.436;21.390;2023-03-20T10:48:37;13.00;;;10.52;;
64085;SDS011;50333;47.436;21.390;2023-03-20T10:51:12;20.08;;;9.32;;
64085;SDS011;50333;47.436;21.390;2023-03-20T10:54:01;11.05;;;9.15;;
64085;SDS011;50333;47.436;21.390;2023-03-20T10:56:35;13.32;;;9.02;;
64085;SDS011;50333;47.436;21.390;2023-03-20T11:02:09;11.05;;;9.38;;
64085;SDS011;50333;47.436;21.390;2023-03-20T11:04:39;11.93;;;8.57;;
64085;SDS011;50333;47.436;21.390;2023-03-20T11:09:41;11.07;;;9.07;;
64085;SDS011;50333;47.436;21.390;2023-03-20T11:12:16;15.15;;;8.20;;
64085;SDS011;50333;47.436;21.390;2023-03-20T11:14:46;14.48;;;8.15;;
64085;SDS011;50333;47.436;21.390;2023-03-20T11:17:14;14.00;;;7.65;;
64085;SDS011;50333;47.436;21.390;2023-03-20T11:19:43;10.55;;;7.57;;
64085;SDS011;50333;47.436;21.390;2023-03-20T11:22:24;9.23;;;7.80;;
64085;SDS011;50333;47.436;21.390;2023-03-20T11:24:53;8.77;;;6.90;;
64085;SDS011;50333;47.436;21.390;2023-03-20T11:27:26;10.30;;;6.93;;
64085;SDS011;50333;47.436;21.390;2023-03-20T11:32:32;9.55;;;6.65;;
64085;SDS011;50333;47.436;21.390;2023-03-20T11:35:36;9.50;;;6.60;;
64085;SDS011;50333;47.436;21.390;2023-03-20T11:38:09;8.10;;;6.43;;
64085;SDS011;50333;47.436;21.390;2023-03-20T11:40:42;8.90;;;6.53;;
64085;SDS011;50333;47.436;21.390;2023-03-20T11:43:14;7.85;;;5.78;;
64085;SDS011;50333;47.436;21.390;2023-03-20T11:45:47;8.15;;;6.50;;
64085;SDS011;50333;47.436;21.390;2023-03-20T11:48:39;7.85;;;5.93;;
64085;SDS011;50333;47.436;21.390;2023-03-20T11:51:08;7.95;;;5.85;;
64085;SDS011;50333;47.436;21.390;2023-03-20T11:53:53;9.70;;;5.65;;
64085;SDS011;50333;47.436;21.390;2023-03-20T11:56:27;11.10;;;5.80;;
64085;SDS011;50333;47.436;21.390;2023-03-20T11:59:03;8.15;;;5.62;;
64085;SDS011;50333;47.436;21.390;2023-03-20T12:01:40;8.63;;;5.78;;
64085;SDS011;50333;47.436;21.390;2023-03-20T12:07:15;7.55;;;4.82;;
64085;SDS011;50333;47.436;21.390;2023-03-20T12:09:57;5.95;;;5.07;;
64085;SDS011;50333;47.436;21.390;2023-03-20T12:12:35;6.97;;;4.70;;
64085;SDS011;50333;47.436;21.390;2023-03-20T12:18:12;6.20;;;4.78;;
64085;SDS011;50333;47.436;21.390;2023-03-20T12:21:10;10.07;;;4.85;;
64085;SDS011;50333;47.436;21.390;2023-03-20T12:23:54;6.43;;;4.43;;
64085;SDS011;50333;47.436;21.390;2023-03-20T12:26:31;5.85;;;4.57;;
64085;SDS011;50333;47.436;21.390;2023-03-20T12:29:09;6.05;;;4.50;;
64085;SDS011;50333;47.436;21.390;2023-03-20T12:31:57;7.28;;;4.55;;
64085;SDS011;50333;47.436;21.390;2023-03-20T12:34:56;6.62;;;4.80;;
64085;SDS011;50333;47.436;21.390;2023-03-20T12:37:29;6.50;;;4.75;;
64085;SDS011;50333;47.436;21.390;2023-03-20T12:39:59;6.87;;;4.75;;
64085;SDS011;50333;47.436;21.390;2023-03-20T12:45:21;10.02;;;5.45;;
64085;SDS011;50333;47.436;21.390;2023-03-20T12:51:23;7.53;;;4.82;;
64085;SDS011;50333;47.436;21.390;2023-03-20T12:54:09;8.18;;;5.12;;
64085;SDS011;50333;47.436;21.390;2023-03-20T12:59:40;8.95;;;5.70;;
64085;SDS011;50333;47.436;21.390;2023-03-20T13:11:19;9.20;;;5.53;;
64085;SDS011;50333;47.436;21.390;2023-03-20T13:24:45;10.68;;;5.15;;
64085;SDS011;50333;47.436;21.390;2023-03-20T13:33:04;7.05;;;4.78;;
64085;SDS011;50333;47.436;21.390;2023-03-20T13:35:38;7.00;;;5.15;;
64085;SDS011;50333;47.436;21.390;2023-03-20T13:38:23;8.77;;;5.72;;
64085;SDS011;50333;47.436;21.390;2023-03-20T13:41:01;9.65;;;5.03;;
64085;SDS011;50333;47.436;21.390;2023-03-20T13:43:39;11.18;;;5.55;;
64085;SDS011;50333;47.436;21.390;2023-03-20T13:48:41;7.47;;;5.60;;
64085;SDS011;50333;47.436;21.390;2023-03-20T13:51:17;7.33;;;5.23;;
64085;SDS011;50333;47.436;21.390;2023-03-20T13:53:51;9.43;;;5.62;;
64085;SDS011;50333;47.436;21.390;2023-03-20T13:57:18;8.20;;;5.60;;
64085;SDS011;50333;47.436;21.390;2023-03-20T14:05:18;28.15;;;6.20;;
64085;SDS011;50333;47.436;21.390;2023-03-20T14:07:53;13.32;;;6.30;;
64085;SDS011;50333;47.436;21.390;2023-03-20T14:12:59;17.50;;;6.32;;
64085;SDS011;50333;47.436;21.390;2023-03-20T14:15:33;12.77;;;6.65;;
64085;SDS011;50333;47.436;21.390;2023-03-20T14:18:03;90.32;;;9.32;;
64085;SDS011;50333;47.436;21.390;2023-03-20T14:20:34;22.85;;;6.72;;
64085;SDS011;50333;47.436;21.390;2023-03-20T14:23:06;15.80;;;6.10;;
64085;SDS011;50333;47.436;21.390;2023-03-20T14:25:44;26.98;;;6.82;;
64085;SDS011;50333;47.436;21.390;2023-03-20T14:30:47;20.30;;;7.22;;
64085;SDS011;50333;47.436;21.390;2023-03-20T14:33:23;21.10;;;7.75;;
64085;SDS011;50333;47.436;21.390;2023-03-20T14:39:14;15.50;;;8.15;;
64085;SDS011;50333;47.436;21.390;2023-03-20T14:41:47;11.27;;;8.45;;
64085;SDS011;50333;47.436;21.390;2023-03-20T14:44:23;12.23;;;8.57;;
64085;SDS011;50333;47.436;21.390;2023-03-20T14:54:52;13.00;;;9.30;;
64085;SDS011;50333;47.436;21.390;2023-03-20T14:57:26;16.73;;;8.95;;
64085;SDS011;50333;47.436;21.390;2023-03-20T15:00:45;14.90;;;8.57;;
64085;SDS011;50333;47.436;21.390;2023-03-20T15:05:43;13.68;;;9.00;;
64085;SDS011;50333;47.436;21.390;2023-03-20T15:08:17;10.48;;;8.63;;
64085;SDS011;50333;47.436;21.390;2023-03-20T15:10:52;12.37;;;8.80;;
64085;SDS011;50333;47.436;21.390;2023-03-20T15:13:23;14.70;;;9.45;;
64085;SDS011;50333;47.436;21.390;2023-03-20T15:15:54;15.93;;;9.27;;
64085;SDS011;50333;47.436;21.390;2023-03-20T15:18:43;11.15;;;8.23;;
64085;SDS011;50333;47.436;21.390;2023-03-20T15:21:17;12.18;;;9.23;;
64085;SDS011;50333;47.436;21.390;2023-03-20T15:23:47;13.52;;;9.23;;
64085;SDS011;50333;47.436;21.390;2023-03-20T15:26:16;17.52;;;9.85;;
64085;SDS011;50333;47.436;21.390;2023-03-20T15:28:46;22.90;;;10.45;;
64085;SDS011;50333;47.436;21.390;2023-03-20T15:31:34;14.35;;;10.25;;
64085;SDS011;50333;47.436;21.390;2023-03-20T15:34:08;15.15;;;10.80;;
64085;SDS011;50333;47.436;21.390;2023-03-20T15:36:44;15.38;;;10.38;;
64085;SDS011;50333;47.436;21.390;2023-03-20T15:39:13;13.77;;;11.18;;
64085;SDS011;50333;47.436;21.390;2023-03-20T15:42:01;17.65;;;10.60;;
64085;SDS011;50333;47.436;21.390;2023-03-20T15:44:34;14.65;;;10.98;;
64085;SDS011;50333;47.436;21.390;2023-03-20T15:49:37;16.70;;;12.88;;
64085;SDS011;50333;47.436;21.390;2023-03-20T15:54:48;19.87;;;11.23;;
64085;SDS011;50333;47.436;21.390;2023-03-20T15:57:24;18.33;;;12.45;;
64085;SDS011;50333;47.436;21.390;2023-03-20T16:00:00;17.35;;;11.18;;
64085;SDS011;50333;47.436;21.390;2023-03-20T16:02:33;20.70;;;12.30;;
64085;SDS011;50333;47.436;21.390;2023-03-20T16:05:03;15.47;;;10.77;;
64085;SDS011;50333;47.436;21.390;2023-03-20T16:07:31;19.40;;;12.40;;
64085;SDS011;50333;47.436;21.390;2023-03-20T16:10:00;15.02;;;11.68;;
64085;SDS011;50333;47.436;21.390;2023-03-20T16:12:28;16.77;;;11.48;;
64085;SDS011;50333;47.436;21.390;2023-03-20T16:14:56;16.98;;;11.90;;
64085;SDS011;50333;47.436;21.390;2023-03-20T16:17:24;15.38;;;11.12;;
64085;SDS011;50333;47.436;21.390;2023-03-20T16:19:53;18.40;;;12.25;;
64085;SDS011;50333;47.436;21.390;2023-03-20T16:22:29;16.92;;;12.02;;
64085;SDS011;50333;47.436;21.390;2023-03-20T16:25:00;18.77;;;11.90;;
64085;SDS011;50333;47.436;21.390;2023-03-20T16:27:30;20.42;;;12.10;;
64085;SDS011;50333;47.436;21.390;2023-03-20T16:30:07;17.15;;;11.95;;
64085;SDS011;50333;47.436;21.390;2023-03-20T16:32:46;17.77;;;11.63;;
64085;SDS011;50333;47.436;21.390;2023-03-20T16:35:19;18.67;;;11.75;;
64085;SDS011;50333;47.436;21.390;2023-03-20T16:37:52;15.43;;;11.50;;
64085;SDS011;50333;47.436;21.390;2023-03-20T16:40:31;16.65;;;12.63;;
64085;SDS011;50333;47.436;21.390;2023-03-20T16:43:15;22.77;;;12.48;;
64085;SDS011;50333;47.436;21.390;2023-03-20T16:45:48;25.42;;;15.35;;
64085;SDS011;50333;47.436;21.390;2023-03-20T16:48:23;23.65;;;14.35;;
64085;SDS011;50333;47.436;21.390;2023-03-20T16:51:01;27.73;;;15.70;;
64085;SDS011;50333;47.436;21.390;2023-03-20T16:53:49;24.92;;;15.60;;
64085;SDS011;50333;47.436;21.390;2023-03-20T16:56:23;23.05;;;15.73;;
64085;SDS011;50333;47.436;21.390;2023-03-20T16:58:54;22.15;;;15.68;;
64085;SDS011;50333;47.436;21.390;2023-03-20T17:01:25;23.67;;;15.27;;
64085;SDS011;50333;47.436;21.390;2023-03-20T17:03:56;21.45;;;15.32;;
64085;SDS011;50333;47.436;21.390;2023-03-20T17:06:42;23.15;;;14.77;;
64085;SDS011;50333;47.436;21.390;2023-03-20T17:09:26;23.92;;;13.85;;
64085;SDS011;50333;47.436;21.390;2023-03-20T17:12:13;24.17;;;13.60;;
64085;SDS011;50333;47.436;21.390;2023-03-20T17:14:44;21.70;;;13.77;;
64085;SDS011;50333;47.436;21.390;2023-03-20T17:17:14;23.08;;;15.73;;